sensor_id;sensor_type;location;lat;lon;timestamp;temperature;humidity
12688;DHT22;6408;59.388;17.798;2023-04-16T00:01:56;2.20;99.90
12688;DHT22;6408;59.388;17.798;2023-04-16T00:04:23;2.10;99.90
12688;DHT22;6408;59.388;17.798;2023-04-16T00:06:54;2.10;99.90
12688;DHT22;6408;59.388;17.798;2023-04-16T00:09:21;2.10;99.90
12688;DHT22;6408;59.388;17.798;2023-04-16T00:11:49;2.10;99.90
12688;DHT22;6408;59.388;17.798;2023-04-16T00:14:16;2.00;99.90
12688;DHT22;6408;59.388;17.798;2023-04-16T00:16:44;2.00;99.90
12688;DHT22;6408;59.388;17.798;2023-04-16T00:19:11;2.00;99.90
12688;DHT22;6408;59.388;17.798;2023-04-16T00:21:39;1.90;99.90
12688;DHT22;6408;59.388;17.798;2023-04-16T00:24:08;1.80;99.90
12688;DHT22;6408;59.388;17.798;2023-04-16T00:26:35;1.80;99.90
12688;DHT22;6408;59.388;17.798;2023-04-16T00:29:03;1.90;99.90
12688;DHT22;6408;59.388;17.798;2023-04-16T00:31:32;1.80;99.90
12688;DHT22;6408;59.388;17.798;2023-04-16T00:34:00;1.80;99.90
12688;DHT22;6408;59.388;17.798;2023-04-16T00:36:27;1.70;99.90
12688;DHT22;6408;59.388;17.798;2023-04-16T00:38:55;1.70;99.90
12688;DHT22;6408;59.388;17.798;2023-04-16T00:41:25;1.80;99.90
12688;DHT22;6408;59.388;17.798;2023-04-16T00:43:52;1.70;99.90
12688;DHT22;6408;59.388;17.798;2023-04-16T00:46:21;1.70;99.90
12688;DHT22;6408;59.388;17.798;2023-04-16T00:48:50;1.60;99.90
12688;DHT22;6408;59.388;17.798;2023-04-16T00:51:19;1.50;99.90
12688;DHT22;6408;59.388;17.798;2023-04-16T00:53:47;1.50;99.90
12688;DHT22;6408;59.388;17.798;2023-04-16T00:56:15;1.50;99.90
12688;DHT22;6408;59.388;17.798;2023-04-16T00:58:44;1.50;99.90
12688;DHT22;6408;59.388;17.798;2023-04-16T01:01:11;1.40;99.90
12688;DHT22;6408;59.388;17.798;2023-04-16T01:03:42;1.40;99.90
12688;DHT22;6408;59.388;17.798;2023-04-16T01:06:10;1.40;99.90
12688;DHT22;6408;59.388;17.798;2023-04-16T01:08:38;1.40;99.90
12688;DHT22;6408;59.388;17.798;2023-04-16T01:11:05;1.40;99.90
12688;DHT22;6408;59.388;17.798;2023-04-16T01:13:33;1.40;99.90
12688;DHT22;6408;59.388;17.798;2023-04-16T01:16:06;1.30;99.90
12688;DHT22;6408;59.388;17.798;2023-04-16T01:18:34;1.30;99.90
12688;DHT22;6408;59.388;17.798;2023-04-16T01:21:04;1.30;99.90
12688;DHT22;6408;59.388;17.798;2023-04-16T01:23:31;1.20;99.90
12688;DHT22;6408;59.388;17.798;2023-04-16T01:25:59;1.20;99.90
12688;DHT22;6408;59.388;17.798;2023-04-16T01:28:26;1.20;99.90
12688;DHT22;6408;59.388;17.798;2023-04-16T01:30:54;1.20;99.90
12688;DHT22;6408;59.388;17.798;2023-04-16T01:33:22;1.20;99.90
12688;DHT22;6408;59.388;17.798;2023-04-16T01:35:50;1.20;99.90
12688;DHT22;6408;59.388;17.798;2023-04-16T01:38:19;1.10;99.90
12688;DHT22;6408;59.388;17.798;2023-04-16T01:40:47;1.10;99.90
12688;DHT22;6408;59.388;17.798;2023-04-16T01:43:14;1.00;99.90
12688;DHT22;6408;59.388;17.798;2023-04-16T01:45:42;1.00;99.90
12688;DHT22;6408;59.388;17.798;2023-04-16T01:48:09;1.00;99.90
12688;DHT22;6408;59.388;17.798;2023-04-16T01:50:37;0.90;99.90
12688;DHT22;6408;59.388;17.798;2023-04-16T01:53:06;0.80;99.90
12688;DHT22;6408;59.388;17.798;2023-04-16T01:55:35;0.80;99.90
12688;DHT22;6408;59.388;17.798;2023-04-16T01:58:03;0.80;99.90
12688;DHT22;6408;59.388;17.798;2023-04-16T02:00:32;0.70;99.90
12688;DHT22;6408;59.388;17.798;2023-04-16T02:03:00;0.70;99.90
12688;DHT22;6408;59.388;17.798;2023-04-16T02:05:27;0.70;99.90
12688;DHT22;6408;59.388;17.798;2023-04-16T02:07:55;0.70;99.90
12688;DHT22;6408;59.388;17.798;2023-04-16T02:10:22;0.80;99.90
12688;DHT22;6408;59.388;17.798;2023-04-16T02:12:52;0.80;99.90
12688;DHT22;6408;59.388;17.798;2023-04-16T02:15:19;0.70;99.90
12688;DHT22;6408;59.388;17.798;2023-04-16T02:17:48;0.70;99.90
12688;DHT22;6408;59.388;17.798;2023-04-16T02:20:19;0.60;99.90
12688;DHT22;6408;59.388;17.798;2023-04-16T02:22:47;0.60;99.90
12688;DHT22;6408;59.388;17.798;2023-04-16T02:25:14;0.70;99.90
12688;DHT22;6408;59.388;17.798;2023-04-16T02:27:42;0.50;99.90
12688;DHT22;6408;59.388;17.798;2023-04-16T02:30:12;0.50;99.90
12688;DHT22;6408;59.388;17.798;2023-04-16T02:32:40;0.50;99.90
12688;DHT22;6408;59.388;17.798;2023-04-16T02:35:07;0.40;99.90
12688;DHT22;6408;59.388;17.798;2023-04-16T02:37:35;0.40;99.90
12688;DHT22;6408;59.388;17.798;2023-04-16T02:40:06;0.40;99.90
12688;DHT22;6408;59.388;17.798;2023-04-16T02:42:34;0.40;99.90
12688;DHT22;6408;59.388;17.798;2023-04-16T02:45:01;0.50;99.90
12688;DHT22;6408;59.388;17.798;2023-04-16T02:47:31;0.50;99.90
12688;DHT22;6408;59.388;17.798;2023-04-16T02:49:58;0.50;99.90
12688;DHT22;6408;59.388;17.798;2023-04-16T02:52:26;0.40;99.90
12688;DHT22;6408;59.388;17.798;2023-04-16T02:54:53;0.40;99.90
12688;DHT22;6408;59.388;17.798;2023-04-16T02:57:20;0.40;99.90
12688;DHT22;6408;59.388;17.798;2023-04-16T02:59:48;0.40;99.90
12688;DHT22;6408;59.388;17.798;2023-04-16T03:02:15;0.40;99.90
12688;DHT22;6408;59.388;17.798;2023-04-16T03:04:45;0.40;99.90
12688;DHT22;6408;59.388;17.798;2023-04-16T03:07:12;0.40;99.90
12688;DHT22;6408;59.388;17.798;2023-04-16T03:09:40;0.30;99.90
12688;DHT22;6408;59.388;17.798;2023-04-16T03:12:08;0.30;99.90
12688;DHT22;6408;59.388;17.798;2023-04-16T03:14:35;0.30;99.90
12688;DHT22;6408;59.388;17.798;2023-04-16T03:17:03;0.20;99.90
12688;DHT22;6408;59.388;17.798;2023-04-16T03:19:30;0.20;99.90
12688;DHT22;6408;59.388;17.798;2023-04-16T03:22:00;0.20;99.90
12688;DHT22;6408;59.388;17.798;2023-04-16T03:24:27;0.30;99.90
12688;DHT22;6408;59.388;17.798;2023-04-16T03:26:56;0.30;99.90
12688;DHT22;6408;59.388;17.798;2023-04-16T03:29:24;0.20;99.90
12688;DHT22;6408;59.388;17.798;2023-04-16T03:31:52;0.20;99.90
12688;DHT22;6408;59.388;17.798;2023-04-16T03:34:19;0.20;99.90
12688;DHT22;6408;59.388;17.798;2023-04-16T03:36:47;0.20;99.90
12688;DHT22;6408;59.388;17.798;2023-04-16T03:39:16;0.20;99.90
12688;DHT22;6408;59.388;17.798;2023-04-16T03:41:44;0.20;99.90
12688;DHT22;6408;59.388;17.798;2023-04-16T03:44:11;0.10;99.90
12688;DHT22;6408;59.388;17.798;2023-04-16T03:46:39;0.20;99.90
12688;DHT22;6408;59.388;17.798;2023-04-16T03:49:06;0.20;99.90
12688;DHT22;6408;59.388;17.798;2023-04-16T03:51:34;0.20;99.90
12688;DHT22;6408;59.388;17.798;2023-04-16T03:54:01;0.10;99.90
12688;DHT22;6408;59.388;17.798;2023-04-16T03:56:30;0.10;99.90
12688;DHT22;6408;59.388;17.798;2023-04-16T03:58:58;0.20;99.90
12688;DHT22;6408;59.388;17.798;2023-04-16T04:01:25;0.20;99.90
12688;DHT22;6408;59.388;17.798;2023-04-16T04:03:53;0.20;99.90
12688;DHT22;6408;59.388;17.798;2023-04-16T04:06:21;0.30;99.90
12688;DHT22;6408;59.388;17.798;2023-04-16T04:08:48;0.30;99.90
12688;DHT22;6408;59.388;17.798;2023-04-16T04:11:16;0.40;99.90
12688;DHT22;6408;59.388;17.798;2023-04-16T04:13:45;0.80;99.90
12688;DHT22;6408;59.388;17.798;2023-04-16T04:16:13;1.60;99.90
12688;DHT22;6408;59.388;17.798;2023-04-16T04:18:40;2.60;99.90
12688;DHT22;6408;59.388;17.798;2023-04-16T04:21:08;3.50;99.90
12688;DHT22;6408;59.388;17.798;2023-04-16T04:23:35;4.10;99.90
12688;DHT22;6408;59.388;17.798;2023-04-16T04:26:03;4.60;99.90
12688;DHT22;6408;59.388;17.798;2023-04-16T04:28:32;5.20;99.90
12688;DHT22;6408;59.388;17.798;2023-04-16T04:31:01;5.60;99.90
12688;DHT22;6408;59.388;17.798;2023-04-16T04:33:28;5.70;99.90
12688;DHT22;6408;59.388;17.798;2023-04-16T04:35:56;5.90;99.90
12688;DHT22;6408;59.388;17.798;2023-04-16T04:38:24;6.30;99.90
12688;DHT22;6408;59.388;17.798;2023-04-16T04:40:51;7.00;99.90
12688;DHT22;6408;59.388;17.798;2023-04-16T04:43:19;7.40;99.90
12688;DHT22;6408;59.388;17.798;2023-04-16T04:45:46;7.80;99.90
12688;DHT22;6408;59.388;17.798;2023-04-16T04:48:16;8.30;99.90
12688;DHT22;6408;59.388;17.798;2023-04-16T04:50:44;8.40;99.90
12688;DHT22;6408;59.388;17.798;2023-04-16T04:53:12;8.90;99.90
12688;DHT22;6408;59.388;17.798;2023-04-16T04:55:39;9.00;99.90
12688;DHT22;6408;59.388;17.798;2023-04-16T04:58:07;9.40;99.90
12688;DHT22;6408;59.388;17.798;2023-04-16T05:00:35;9.90;99.90
12688;DHT22;6408;59.388;17.798;2023-04-16T05:03:08;10.40;99.90
12688;DHT22;6408;59.388;17.798;2023-04-16T05:05:37;10.80;99.90
12688;DHT22;6408;59.388;17.798;2023-04-16T05:08:05;10.70;99.90
12688;DHT22;6408;59.388;17.798;2023-04-16T05:10:32;10.80;99.90
12688;DHT22;6408;59.388;17.798;2023-04-16T05:13:00;11.40;99.90
12688;DHT22;6408;59.388;17.798;2023-04-16T05:15:27;11.70;99.90
12688;DHT22;6408;59.388;17.798;2023-04-16T05:17:55;12.00;99.90
12688;DHT22;6408;59.388;17.798;2023-04-16T05:20:22;12.30;99.90
12688;DHT22;6408;59.388;17.798;2023-04-16T05:22:52;12.40;99.90
12688;DHT22;6408;59.388;17.798;2023-04-16T05:25:20;12.10;99.90
12688;DHT22;6408;59.388;17.798;2023-04-16T05:27:47;11.90;99.90
12688;DHT22;6408;59.388;17.798;2023-04-16T05:30:15;12.20;99.90
12688;DHT22;6408;59.388;17.798;2023-04-16T05:32:42;12.90;99.90
12688;DHT22;6408;59.388;17.798;2023-04-16T05:35:10;13.60;99.90
12688;DHT22;6408;59.388;17.798;2023-04-16T05:37:37;14.10;99.90
12688;DHT22;6408;59.388;17.798;2023-04-16T05:40:09;14.60;99.90
12688;DHT22;6408;59.388;17.798;2023-04-16T05:42:36;14.60;99.90
12688;DHT22;6408;59.388;17.798;2023-04-16T05:45:05;15.30;99.90
12688;DHT22;6408;59.388;17.798;2023-04-16T05:47:32;15.60;99.90
12688;DHT22;6408;59.388;17.798;2023-04-16T05:50:00;16.10;99.90
12688;DHT22;6408;59.388;17.798;2023-04-16T05:52:28;16.20;99.90
12688;DHT22;6408;59.388;17.798;2023-04-16T05:54:55;17.20;99.90
12688;DHT22;6408;59.388;17.798;2023-04-16T05:57:28;17.40;99.90
12688;DHT22;6408;59.388;17.798;2023-04-16T05:59:55;17.90;99.90
12688;DHT22;6408;59.388;17.798;2023-04-16T06:02:23;18.20;99.90
12688;DHT22;6408;59.388;17.798;2023-04-16T06:04:51;18.40;99.90
12688;DHT22;6408;59.388;17.798;2023-04-16T06:07:18;19.20;99.00
12688;DHT22;6408;59.388;17.798;2023-04-16T06:09:46;20.30;98.00
12688;DHT22;6408;59.388;17.798;2023-04-16T06:12:13;20.90;96.30
12688;DHT22;6408;59.388;17.798;2023-04-16T06:14:42;20.40;95.80
12688;DHT22;6408;59.388;17.798;2023-04-16T06:17:10;21.40;94.70
12688;DHT22;6408;59.388;17.798;2023-04-16T06:19:37;21.70;94.00
12688;DHT22;6408;59.388;17.798;2023-04-16T06:22:06;22.10;92.90
12688;DHT22;6408;59.388;17.798;2023-04-16T06:24:33;21.90;91.90
12688;DHT22;6408;59.388;17.798;2023-04-16T06:27:01;22.20;91.30
12688;DHT22;6408;59.388;17.798;2023-04-16T06:29:29;22.30;91.60
12688;DHT22;6408;59.388;17.798;2023-04-16T06:31:58;23.10;90.80
12688;DHT22;6408;59.388;17.798;2023-04-16T06:34:27;22.70;89.00
12688;DHT22;6408;59.388;17.798;2023-04-16T06:36:55;22.00;89.20
12688;DHT22;6408;59.388;17.798;2023-04-16T06:39:22;22.80;88.00
12688;DHT22;6408;59.388;17.798;2023-04-16T06:41:50;23.30;86.20
12688;DHT22;6408;59.388;17.798;2023-04-16T06:44:18;22.90;85.90
12688;DHT22;6408;59.388;17.798;2023-04-16T06:46:45;23.70;85.70
12688;DHT22;6408;59.388;17.798;2023-04-16T06:49:14;24.40;83.80
12688;DHT22;6408;59.388;17.798;2023-04-16T06:51:42;24.70;82.90
12688;DHT22;6408;59.388;17.798;2023-04-16T06:54:09;25.20;82.00
12688;DHT22;6408;59.388;17.798;2023-04-16T06:56:37;24.70;80.40
12688;DHT22;6408;59.388;17.798;2023-04-16T06:59:04;23.60;78.80
12688;DHT22;6408;59.388;17.798;2023-04-16T07:01:31;24.70;79.30
12688;DHT22;6408;59.388;17.798;2023-04-16T07:03:59;24.30;77.90
12688;DHT22;6408;59.388;17.798;2023-04-16T07:06:30;25.10;78.80
12688;DHT22;6408;59.388;17.798;2023-04-16T07:08:57;23.90;76.80
12688;DHT22;6408;59.388;17.798;2023-04-16T07:11:24;23.30;76.50
12688;DHT22;6408;59.388;17.798;2023-04-16T07:13:52;24.30;77.10
12688;DHT22;6408;59.388;17.798;2023-04-16T07:16:20;24.50;76.60
12688;DHT22;6408;59.388;17.798;2023-04-16T07:18:47;24.70;75.70
12688;DHT22;6408;59.388;17.798;2023-04-16T07:21:15;25.10;75.20
12688;DHT22;6408;59.388;17.798;2023-04-16T07:23:44;25.70;74.30
12688;DHT22;6408;59.388;17.798;2023-04-16T07:26:11;25.40;73.20
12688;DHT22;6408;59.388;17.798;2023-04-16T07:28:39;24.10;72.70
12688;DHT22;6408;59.388;17.798;2023-04-16T07:31:07;25.20;73.10
12688;DHT22;6408;59.388;17.798;2023-04-16T07:33:34;26.10;72.60
12688;DHT22;6408;59.388;17.798;2023-04-16T07:36:02;26.10;70.60
12688;DHT22;6408;59.388;17.798;2023-04-16T07:38:30;25.90;70.90
12688;DHT22;6408;59.388;17.798;2023-04-16T07:41:00;26.40;70.70
12688;DHT22;6408;59.388;17.798;2023-04-16T07:43:28;26.80;69.00
12688;DHT22;6408;59.388;17.798;2023-04-16T07:45:55;26.30;69.10
12688;DHT22;6408;59.388;17.798;2023-04-16T07:48:23;25.60;69.40
12688;DHT22;6408;59.388;17.798;2023-04-16T07:50:51;25.00;70.50
12688;DHT22;6408;59.388;17.798;2023-04-16T07:53:19;24.00;70.50
12688;DHT22;6408;59.388;17.798;2023-04-16T07:55:46;23.20;71.30
12688;DHT22;6408;59.388;17.798;2023-04-16T07:58:15;22.90;71.90
12688;DHT22;6408;59.388;17.798;2023-04-16T08:00:42;21.70;72.60
12688;DHT22;6408;59.388;17.798;2023-04-16T08:03:10;21.60;74.70
12688;DHT22;6408;59.388;17.798;2023-04-16T08:05:37;20.80;76.00
12688;DHT22;6408;59.388;17.798;2023-04-16T08:08:05;19.80;76.70
12688;DHT22;6408;59.388;17.798;2023-04-16T08:10:32;17.40;79.00
12688;DHT22;6408;59.388;17.798;2023-04-16T08:13:00;16.20;81.70
12688;DHT22;6408;59.388;17.798;2023-04-16T08:15:29;14.60;82.60
12688;DHT22;6408;59.388;17.798;2023-04-16T08:17:57;14.10;84.10
12688;DHT22;6408;59.388;17.798;2023-04-16T08:20:24;13.50;85.80
12688;DHT22;6408;59.388;17.798;2023-04-16T08:22:53;12.70;86.30
12688;DHT22;6408;59.388;17.798;2023-04-16T08:25:20;12.10;87.60
12688;DHT22;6408;59.388;17.798;2023-04-16T08:27:49;11.80;87.90
12688;DHT22;6408;59.388;17.798;2023-04-16T08:30:17;11.50;88.50
12688;DHT22;6408;59.388;17.798;2023-04-16T08:32:46;11.60;89.00
12688;DHT22;6408;59.388;17.798;2023-04-16T08:35:13;11.50;89.80
12688;DHT22;6408;59.388;17.798;2023-04-16T08:37:40;11.50;90.10
12688;DHT22;6408;59.388;17.798;2023-04-16T08:40:08;11.50;90.10
12688;DHT22;6408;59.388;17.798;2023-04-16T08:42:39;11.40;90.50
12688;DHT22;6408;59.388;17.798;2023-04-16T08:45:13;11.30;90.30
12688;DHT22;6408;59.388;17.798;2023-04-16T08:47:46;11.30;90.70
12688;DHT22;6408;59.388;17.798;2023-04-16T08:50:15;11.40;90.80
12688;DHT22;6408;59.388;17.798;2023-04-16T08:52:50;11.60;90.80
12688;DHT22;6408;59.388;17.798;2023-04-16T08:55:20;11.90;90.60
12688;DHT22;6408;59.388;17.798;2023-04-16T08:57:53;12.00;90.50
12688;DHT22;6408;59.388;17.798;2023-04-16T09:00:21;12.10;90.00
12688;DHT22;6408;59.388;17.798;2023-04-16T09:02:50;12.00;90.40
12688;DHT22;6408;59.388;17.798;2023-04-16T09:05:18;11.90;90.40
12688;DHT22;6408;59.388;17.798;2023-04-16T09:07:46;11.90;90.60
12688;DHT22;6408;59.388;17.798;2023-04-16T09:10:14;12.00;90.80
12688;DHT22;6408;59.388;17.798;2023-04-16T09:12:43;12.10;90.50
12688;DHT22;6408;59.388;17.798;2023-04-16T09:15:12;12.20;90.40
12688;DHT22;6408;59.388;17.798;2023-04-16T09:17:39;12.20;90.20
12688;DHT22;6408;59.388;17.798;2023-04-16T09:20:09;12.10;89.70
12688;DHT22;6408;59.388;17.798;2023-04-16T09:22:37;12.10;90.00
12688;DHT22;6408;59.388;17.798;2023-04-16T09:25:05;11.90;89.20
12688;DHT22;6408;59.388;17.798;2023-04-16T09:27:33;11.80;90.50
12688;DHT22;6408;59.388;17.798;2023-04-16T09:30:09;11.60;90.40
12688;DHT22;6408;59.388;17.798;2023-04-16T09:32:46;11.50;90.40
12688;DHT22;6408;59.388;17.798;2023-04-16T09:35:17;11.80;91.00
12688;DHT22;6408;59.388;17.798;2023-04-16T09:37:54;12.20;90.20
12688;DHT22;6408;59.388;17.798;2023-04-16T09:40:26;12.20;89.90
12688;DHT22;6408;59.388;17.798;2023-04-16T09:42:58;12.40;90.10
12688;DHT22;6408;59.388;17.798;2023-04-16T09:45:30;12.60;90.40
12688;DHT22;6408;59.388;17.798;2023-04-16T09:48:02;12.70;89.00
12688;DHT22;6408;59.388;17.798;2023-04-16T09:50:32;12.70;89.00
12688;DHT22;6408;59.388;17.798;2023-04-16T09:53:01;12.90;90.20
12688;DHT22;6408;59.388;17.798;2023-04-16T09:55:29;13.00;88.70
12688;DHT22;6408;59.388;17.798;2023-04-16T09:58:00;12.90;88.10
12688;DHT22;6408;59.388;17.798;2023-04-16T10:00:28;12.70;89.30
12688;DHT22;6408;59.388;17.798;2023-04-16T10:03:03;12.90;89.60
12688;DHT22;6408;59.388;17.798;2023-04-16T10:05:33;13.00;90.10
12688;DHT22;6408;59.388;17.798;2023-04-16T10:08:01;13.30;89.50
12688;DHT22;6408;59.388;17.798;2023-04-16T10:10:29;13.60;88.50
12688;DHT22;6408;59.388;17.798;2023-04-16T10:12:57;13.60;87.20
12688;DHT22;6408;59.388;17.798;2023-04-16T10:15:24;13.50;87.40
12688;DHT22;6408;59.388;17.798;2023-04-16T10:17:53;13.30;86.30
12688;DHT22;6408;59.388;17.798;2023-04-16T10:20:23;13.20;88.00
12688;DHT22;6408;59.388;17.798;2023-04-16T10:22:53;13.20;88.10
12688;DHT22;6408;59.388;17.798;2023-04-16T10:25:20;13.30;86.80
12688;DHT22;6408;59.388;17.798;2023-04-16T10:27:49;13.50;87.30
12688;DHT22;6408;59.388;17.798;2023-04-16T10:30:17;13.40;85.40
12688;DHT22;6408;59.388;17.798;2023-04-16T10:32:46;13.40;85.90
12688;DHT22;6408;59.388;17.798;2023-04-16T10:35:16;13.50;87.10
12688;DHT22;6408;59.388;17.798;2023-04-16T10:37:45;13.70;86.70
12688;DHT22;6408;59.388;17.798;2023-04-16T10:40:24;13.80;86.40
12688;DHT22;6408;59.388;17.798;2023-04-16T10:42:56;13.80;85.50
12688;DHT22;6408;59.388;17.798;2023-04-16T10:45:29;13.80;85.70
12688;DHT22;6408;59.388;17.798;2023-04-16T10:47:58;13.80;85.90
12688;DHT22;6408;59.388;17.798;2023-04-16T10:50:34;13.70;85.00
12688;DHT22;6408;59.388;17.798;2023-04-16T10:53:18;13.80;84.70
12688;DHT22;6408;59.388;17.798;2023-04-16T10:56:10;13.80;85.00
12688;DHT22;6408;59.388;17.798;2023-04-16T10:58:38;13.90;84.60
12688;DHT22;6408;59.388;17.798;2023-04-16T11:01:06;13.90;83.90
12688;DHT22;6408;59.388;17.798;2023-04-16T11:03:40;13.70;85.30
12688;DHT22;6408;59.388;17.798;2023-04-16T11:06:10;13.80;84.60
12688;DHT22;6408;59.388;17.798;2023-04-16T11:08:38;13.90;84.50
12688;DHT22;6408;59.388;17.798;2023-04-16T11:11:07;14.10;84.40
12688;DHT22;6408;59.388;17.798;2023-04-16T11:13:35;14.00;83.00
12688;DHT22;6408;59.388;17.798;2023-04-16T11:16:03;14.20;84.40
12688;DHT22;6408;59.388;17.798;2023-04-16T11:18:31;14.50;84.60
12688;DHT22;6408;59.388;17.798;2023-04-16T11:20:58;14.70;83.40
12688;DHT22;6408;59.388;17.798;2023-04-16T11:23:26;14.60;83.20
12688;DHT22;6408;59.388;17.798;2023-04-16T11:25:53;14.60;82.90
12688;DHT22;6408;59.388;17.798;2023-04-16T11:28:34;14.50;84.30
12688;DHT22;6408;59.388;17.798;2023-04-16T11:31:09;13.90;82.40
12688;DHT22;6408;59.388;17.798;2023-04-16T11:33:38;13.90;84.70
12688;DHT22;6408;59.388;17.798;2023-04-16T11:36:05;14.10;84.30
12688;DHT22;6408;59.388;17.798;2023-04-16T11:38:34;14.20;82.60
12688;DHT22;6408;59.388;17.798;2023-04-16T11:41:02;14.30;82.70
12688;DHT22;6408;59.388;17.798;2023-04-16T11:43:29;14.50;83.80
12688;DHT22;6408;59.388;17.798;2023-04-16T11:45:59;14.40;81.80
12688;DHT22;6408;59.388;17.798;2023-04-16T11:48:45;14.30;82.60
12688;DHT22;6408;59.388;17.798;2023-04-16T11:51:12;14.30;83.20
12688;DHT22;6408;59.388;17.798;2023-04-16T11:53:45;14.30;82.20
12688;DHT22;6408;59.388;17.798;2023-04-16T11:56:13;14.40;82.20
12688;DHT22;6408;59.388;17.798;2023-04-16T11:58:42;14.50;81.60
12688;DHT22;6408;59.388;17.798;2023-04-16T12:01:11;14.60;81.90
12688;DHT22;6408;59.388;17.798;2023-04-16T12:03:40;14.50;80.30
12688;DHT22;6408;59.388;17.798;2023-04-16T12:06:10;14.20;80.20
12688;DHT22;6408;59.388;17.798;2023-04-16T12:08:37;14.20;79.60
12688;DHT22;6408;59.388;17.798;2023-04-16T12:11:05;14.10;81.60
12688;DHT22;6408;59.388;17.798;2023-04-16T12:13:32;14.20;80.20
12688;DHT22;6408;59.388;17.798;2023-04-16T12:16:17;14.20;79.50
12688;DHT22;6408;59.388;17.798;2023-04-16T12:18:58;14.30;79.10
12688;DHT22;6408;59.388;17.798;2023-04-16T12:21:38;14.40;78.00
12688;DHT22;6408;59.388;17.798;2023-04-16T12:24:08;14.30;78.80
12688;DHT22;6408;59.388;17.798;2023-04-16T12:26:40;14.30;79.20
12688;DHT22;6408;59.388;17.798;2023-04-16T12:29:18;14.40;78.20
12688;DHT22;6408;59.388;17.798;2023-04-16T12:31:49;14.60;76.80
12688;DHT22;6408;59.388;17.798;2023-04-16T12:34:17;14.60;76.70
12688;DHT22;6408;59.388;17.798;2023-04-16T12:36:46;14.70;77.90
12688;DHT22;6408;59.388;17.798;2023-04-16T12:39:14;14.80;78.20
12688;DHT22;6408;59.388;17.798;2023-04-16T12:41:42;14.80;76.00
12688;DHT22;6408;59.388;17.798;2023-04-16T12:44:11;14.80;76.70
12688;DHT22;6408;59.388;17.798;2023-04-16T12:46:39;14.80;75.60
12688;DHT22;6408;59.388;17.798;2023-04-16T12:49:09;14.90;77.80
12688;DHT22;6408;59.388;17.798;2023-04-16T12:51:37;14.80;76.40
12688;DHT22;6408;59.388;17.798;2023-04-16T12:54:06;14.70;76.70
12688;DHT22;6408;59.388;17.798;2023-04-16T12:56:33;14.50;76.90
12688;DHT22;6408;59.388;17.798;2023-04-16T12:59:01;14.50;76.60
12688;DHT22;6408;59.388;17.798;2023-04-16T13:01:29;14.50;77.50
12688;DHT22;6408;59.388;17.798;2023-04-16T13:03:56;14.60;77.00
12688;DHT22;6408;59.388;17.798;2023-04-16T13:06:26;14.70;77.20
12688;DHT22;6408;59.388;17.798;2023-04-16T13:08:53;14.60;76.10
12688;DHT22;6408;59.388;17.798;2023-04-16T13:11:20;14.60;76.80
12688;DHT22;6408;59.388;17.798;2023-04-16T13:13:47;14.50;76.40
12688;DHT22;6408;59.388;17.798;2023-04-16T13:16:15;14.50;76.60
12688;DHT22;6408;59.388;17.798;2023-04-16T13:18:42;14.60;75.60
12688;DHT22;6408;59.388;17.798;2023-04-16T13:21:10;14.60;75.60
12688;DHT22;6408;59.388;17.798;2023-04-16T13:23:39;14.50;76.30
12688;DHT22;6408;59.388;17.798;2023-04-16T13:26:06;14.50;75.20
12688;DHT22;6408;59.388;17.798;2023-04-16T13:28:33;14.40;75.80
12688;DHT22;6408;59.388;17.798;2023-04-16T13:31:01;14.40;75.70
12688;DHT22;6408;59.388;17.798;2023-04-16T13:33:29;14.40;75.30
12688;DHT22;6408;59.388;17.798;2023-04-16T13:35:56;14.50;76.00
12688;DHT22;6408;59.388;17.798;2023-04-16T13:38:23;14.40;75.50
12688;DHT22;6408;59.388;17.798;2023-04-16T13:40:52;14.10;77.00
12688;DHT22;6408;59.388;17.798;2023-04-16T13:43:20;14.10;75.20
12688;DHT22;6408;59.388;17.798;2023-04-16T13:45:47;14.10;75.20
12688;DHT22;6408;59.388;17.798;2023-04-16T13:48:14;14.20;75.40
12688;DHT22;6408;59.388;17.798;2023-04-16T13:50:42;14.20;76.00
12688;DHT22;6408;59.388;17.798;2023-04-16T13:53:10;14.30;78.30
12688;DHT22;6408;59.388;17.798;2023-04-16T13:55:37;14.20;77.30
12688;DHT22;6408;59.388;17.798;2023-04-16T13:58:08;14.20;78.90
12688;DHT22;6408;59.388;17.798;2023-04-16T14:00:36;14.20;78.40
12688;DHT22;6408;59.388;17.798;2023-04-16T14:03:03;14.20;78.80
12688;DHT22;6408;59.388;17.798;2023-04-16T14:05:31;14.30;80.00
12688;DHT22;6408;59.388;17.798;2023-04-16T14:07:59;14.40;79.00
12688;DHT22;6408;59.388;17.798;2023-04-16T14:10:26;14.30;78.30
12688;DHT22;6408;59.388;17.798;2023-04-16T14:12:54;14.20;78.60
12688;DHT22;6408;59.388;17.798;2023-04-16T14:15:23;14.10;79.20
12688;DHT22;6408;59.388;17.798;2023-04-16T14:17:54;14.00;79.30
12688;DHT22;6408;59.388;17.798;2023-04-16T14:20:21;14.10;78.80
12688;DHT22;6408;59.388;17.798;2023-04-16T14:22:49;13.90;79.40
12688;DHT22;6408;59.388;17.798;2023-04-16T14:25:16;13.70;79.40
12688;DHT22;6408;59.388;17.798;2023-04-16T14:27:44;13.70;79.40
12688;DHT22;6408;59.388;17.798;2023-04-16T14:30:12;13.60;79.10
12688;DHT22;6408;59.388;17.798;2023-04-16T14:32:41;13.50;79.60
12688;DHT22;6408;59.388;17.798;2023-04-16T14:35:08;13.40;80.40
12688;DHT22;6408;59.388;17.798;2023-04-16T14:37:36;13.60;81.10
12688;DHT22;6408;59.388;17.798;2023-04-16T14:40:05;13.60;79.80
12688;DHT22;6408;59.388;17.798;2023-04-16T14:42:34;13.60;80.00
12688;DHT22;6408;59.388;17.798;2023-04-16T14:45:03;13.40;79.60
12688;DHT22;6408;59.388;17.798;2023-04-16T14:47:31;13.30;79.70
12688;DHT22;6408;59.388;17.798;2023-04-16T14:50:01;13.20;80.40
12688;DHT22;6408;59.388;17.798;2023-04-16T14:52:30;13.00;80.40
12688;DHT22;6408;59.388;17.798;2023-04-16T14:54:57;13.00;79.90
12688;DHT22;6408;59.388;17.798;2023-04-16T14:57:25;13.00;81.60
12688;DHT22;6408;59.388;17.798;2023-04-16T14:59:52;13.30;81.00
12688;DHT22;6408;59.388;17.798;2023-04-16T15:02:20;13.40;80.50
12688;DHT22;6408;59.388;17.798;2023-04-16T15:04:47;13.20;79.40
12688;DHT22;6408;59.388;17.798;2023-04-16T15:07:16;13.00;79.90
12688;DHT22;6408;59.388;17.798;2023-04-16T15:09:43;12.90;78.80
12688;DHT22;6408;59.388;17.798;2023-04-16T15:12:11;12.70;79.30
12688;DHT22;6408;59.388;17.798;2023-04-16T15:14:38;12.70;80.70
12688;DHT22;6408;59.388;17.798;2023-04-16T15:17:06;12.70;80.20
12688;DHT22;6408;59.388;17.798;2023-04-16T15:19:33;12.70;79.80
12688;DHT22;6408;59.388;17.798;2023-04-16T15:22:00;12.70;80.70
12688;DHT22;6408;59.388;17.798;2023-04-16T15:24:29;12.80;79.90
12688;DHT22;6408;59.388;17.798;2023-04-16T15:26:56;12.70;79.80
12688;DHT22;6408;59.388;17.798;2023-04-16T15:29:24;12.60;80.60
12688;DHT22;6408;59.388;17.798;2023-04-16T15:31:51;12.60;80.00
12688;DHT22;6408;59.388;17.798;2023-04-16T15:34:18;12.50;80.60
12688;DHT22;6408;59.388;17.798;2023-04-16T15:36:46;12.40;81.40
12688;DHT22;6408;59.388;17.798;2023-04-16T15:39:13;12.40;81.00
12688;DHT22;6408;59.388;17.798;2023-04-16T15:41:42;12.30;80.80
12688;DHT22;6408;59.388;17.798;2023-04-16T15:44:10;12.20;80.80